createdAt,value
2022-08-26T00:01:52.725Z,69.21
2022-08-26T00:04:21.523Z,69.32
2022-08-26T00:06:48.596Z,69.26
2022-08-26T00:09:16.225Z,69.33
2022-08-26T00:11:47.209Z,69.37
2022-08-26T00:14:16.347Z,69.35
2022-08-26T00:16:48.082Z,69.42
2022-08-26T00:19:20.488Z,69.52
2022-08-26T00:21:49.687Z,69.66
2022-08-26T00:24:19.403Z,69.66
2022-08-26T00:26:46.997Z,69.34
2022-08-26T00:29:14.974Z,69.48
2022-08-26T00:31:42.886Z,69.60
2022-08-26T00:34:12.769Z,69.54
2022-08-26T00:36:41.004Z,69.72
2022-08-26T00:39:08.918Z,69.65
2022-08-26T00:41:39.889Z,69.52
2022-08-26T00:44:08.091Z,69.55
2022-08-26T00:46:40.523Z,69.69
2022-08-26T00:49:18.316Z,69.67
2022-08-26T00:51:53.472Z,69.46
2022-08-26T00:54:23.184Z,69.78
2022-08-26T00:57:00.318Z,69.49
2022-08-26T00:59:32.708Z,69.59
2022-08-26T01:02:02.931Z,69.58
2022-08-26T01:04:33.599Z,69.59
2022-08-26T01:07:01.596Z,69.66
2022-08-26T01:09:30.110Z,69.68
2022-08-26T01:12:00.482Z,69.29
2022-08-26T01:14:35.017Z,69.39
2022-08-26T01:17:07.219Z,69.42
2022-08-26T01:19:46.981Z,69.38
2022-08-26T01:22:46.238Z,69.22
2022-08-26T01:25:14.734Z,69.12
2022-08-26T01:27:42.255Z,69.33
2022-08-26T01:30:12.326Z,69.57
2022-08-26T01:32:40.596Z,69.43
2022-08-26T01:35:08.826Z,69.63
2022-08-26T01:37:39.011Z,69.44
2022-08-26T01:40:11.280Z,69.38
2022-08-26T01:42:40.704Z,69.64
2022-08-26T01:45:12.594Z,69.54
2022-08-26T01:47:41.421Z,69.45
2022-08-26T01:50:13.301Z,69.57
2022-08-26T01:52:49.982Z,69.44
2022-08-26T01:55:32.146Z,69.40
2022-08-26T01:58:04.851Z,69.46
2022-08-26T02:00:34.253Z,69.78
2022-08-26T02:03:18.109Z,69.97
2022-08-26T02:05:59.337Z,69.91
2022-08-26T02:08:36.961Z,69.97
2022-08-26T02:11:05.079Z,69.82
2022-08-26T02:13:38.231Z,69.68
2022-08-26T02:16:05.864Z,69.61
2022-08-26T02:18:38.582Z,69.71
2022-08-26T02:21:07.648Z,69.23
2022-08-26T02:23:35.831Z,69.47
2022-08-26T02:26:19.179Z,69.59
2022-08-26T02:28:56.519Z,69.64
2022-08-26T02:31:24.652Z,69.60
2022-08-26T02:33:51.622Z,69.77
2022-08-26T02:36:21.331Z,69.41
2022-08-26T02:38:48.276Z,69.74
2022-08-26T02:41:15.211Z,69.61
2022-08-26T02:43:44.987Z,69.84
2022-08-26T02:46:11.942Z,69.97
2022-08-26T02:48:48.485Z,69.45
2022-08-26T02:51:15.608Z,69.58
2022-08-26T02:53:43.708Z,69.55
2022-08-26T02:56:10.935Z,69.73
2022-08-26T02:58:37.864Z,69.61
2022-08-26T03:01:05.337Z,69.63
2022-08-26T03:03:33.643Z,69.61
2022-08-26T03:06:01.209Z,69.82
2022-08-26T03:08:28.166Z,69.57
2022-08-26T03:10:55.081Z,69.71
2022-08-26T03:13:21.990Z,69.39
2022-08-26T03:15:49.179Z,69.39
2022-08-26T03:18:16.289Z,69.38
2022-08-26T03:20:43.979Z,69.20
2022-08-26T03:23:12.560Z,69.21
2022-08-26T03:25:39.978Z,69.26
2022-08-26T03:28:07.768Z,69.25
2022-08-26T03:30:45.305Z,69.19
2022-08-26T03:33:14.037Z,69.26
2022-08-26T03:35:43.583Z,69.29
2022-08-26T03:38:11.390Z,69.61
2022-08-26T03:40:39.297Z,69.38
2022-08-26T03:43:09.493Z,69.16
2022-08-26T03:45:37.539Z,69.23
2022-08-26T03:48:05.328Z,69.52
2022-08-26T03:50:34.284Z,69.12
2022-08-26T03:53:03.369Z,69.09
2022-08-26T03:55:32.670Z,69.08
2022-08-26T03:58:01.101Z,69.14
2022-08-26T04:00:28.594Z,69.16
2022-08-26T04:02:55.642Z,69.06
2022-08-26T04:05:23.735Z,68.99
2022-08-26T04:07:51.963Z,69.07
2022-08-26T04:10:28.582Z,69.17
2022-08-26T04:12:56.262Z,69.18
2022-08-26T04:15:26.948Z,69.26
2022-08-26T04:17:54.002Z,69.00
2022-08-26T04:20:22.926Z,69.10
2022-08-26T04:22:50.762Z,69.16
2022-08-26T04:25:18.661Z,69.33
2022-08-26T04:27:48.313Z,69.42
2022-08-26T04:30:16.701Z,69.13
2022-08-26T04:32:43.919Z,69.20
2022-08-26T04:35:10.932Z,69.30
2022-08-26T04:37:38.197Z,69.45
2022-08-26T04:40:06.536Z,69.57
2022-08-26T04:42:33.692Z,69.46
2022-08-26T04:45:01.338Z,69.30
2022-08-26T04:47:32.661Z,69.45
2022-08-26T04:50:00.130Z,69.26
2022-08-26T04:52:29.079Z,69.26
2022-08-26T04:54:57.893Z,69.20
2022-08-26T04:57:24.788Z,69.42
2022-08-26T04:59:51.632Z,69.39
2022-08-26T05:02:18.510Z,69.33
2022-08-26T05:04:45.835Z,69.47
2022-08-26T05:07:12.938Z,69.26
2022-08-26T05:09:40.852Z,69.20
2022-08-26T05:12:08.241Z,69.30
2022-08-26T05:14:36.021Z,69.43
2022-08-26T05:17:03.247Z,69.52
2022-08-26T05:19:31.697Z,69.37
2022-08-26T05:21:59.994Z,69.51
2022-08-26T05:24:26.874Z,69.41
2022-08-26T05:26:54.379Z,69.12
2022-08-26T05:29:23.628Z,69.33
2022-08-26T05:31:52.064Z,69.50
2022-08-26T05:34:19.269Z,69.55
2022-08-26T05:36:47.546Z,69.38
2022-08-26T05:39:14.392Z,69.46
2022-08-26T05:41:43.228Z,69.47
2022-08-26T05:44:14.879Z,69.48
2022-08-26T05:46:44.833Z,69.49
2022-08-26T05:49:13.760Z,69.38
2022-08-26T05:51:47.524Z,69.42
2022-08-26T05:54:21.284Z,69.42
2022-08-26T05:56:50.804Z,69.48
2022-08-26T05:59:21.232Z,69.59
2022-08-26T06:01:52.254Z,69.62
2022-08-26T06:04:20.049Z,69.65
2022-08-26T06:06:47.233Z,69.68
2022-08-26T06:09:14.540Z,69.61
2022-08-26T06:11:44.510Z,69.64
2022-08-26T06:14:11.772Z,69.55
2022-08-26T06:16:43.910Z,69.61
2022-08-26T06:19:13.604Z,69.67
2022-08-26T06:21:42.237Z,69.51
2022-08-26T06:24:32.210Z,69.71
2022-08-26T06:27:02.516Z,69.78
2022-08-26T06:29:34.430Z,69.80
2022-08-26T06:32:04.286Z,69.89
2022-08-26T06:34:31.609Z,69.98
2022-08-26T06:37:02.721Z,69.87
2022-08-26T06:39:31.464Z,69.90
2022-08-26T06:41:59.562Z,70.07
2022-08-26T06:44:27.252Z,70.14
2022-08-26T06:46:54.300Z,70.25
2022-08-26T06:49:26.616Z,70.12
2022-08-26T06:52:00.869Z,70.26
2022-08-26T06:54:31.622Z,70.30
2022-08-26T06:56:58.896Z,70.22
2022-08-26T06:59:26.017Z,70.27
2022-08-26T07:01:54.910Z,70.29
2022-08-26T07:04:23.262Z,70.33
2022-08-26T07:06:52.985Z,70.42
2022-08-26T07:09:21.982Z,70.56
2022-08-26T07:11:51.346Z,70.60
2022-08-26T07:14:19.296Z,70.66
2022-08-26T07:16:49.683Z,70.68
2022-08-26T07:19:30.482Z,70.65
2022-08-26T07:22:04.791Z,70.71
2022-08-26T07:24:35.440Z,70.72
2022-08-26T07:27:05.651Z,70.71
2022-08-26T07:29:33.329Z,70.59
2022-08-26T07:32:00.546Z,70.68
2022-08-26T07:34:27.896Z,70.58
2022-08-26T07:36:57.025Z,70.65
2022-08-26T07:39:25.214Z,70.61
2022-08-26T07:41:52.950Z,70.58
2022-08-26T07:44:19.964Z,70.60
2022-08-26T07:46:52.368Z,70.57
2022-08-26T07:49:22.222Z,70.56
2022-08-26T07:51:50.391Z,70.58
2022-08-26T07:54:17.948Z,70.63
2022-08-26T07:56:46.369Z,70.61
2022-08-26T07:59:15.128Z,70.60
2022-08-26T08:01:44.731Z,70.66
2022-08-26T08:04:17.356Z,70.63
2022-08-26T08:06:45.622Z,70.68
2022-08-26T08:09:15.599Z,70.74
2022-08-26T08:11:44.966Z,70.71
2022-08-26T08:14:13.106Z,70.65
2022-08-26T08:16:45.904Z,70.48
2022-08-26T08:19:14.829Z,70.61
2022-08-26T08:21:43.362Z,70.42
2022-08-26T08:24:11.315Z,70.58
2022-08-26T08:26:38.398Z,70.44
2022-08-26T08:29:08.035Z,70.48
2022-08-26T08:31:56.628Z,70.46
2022-08-26T08:34:24.824Z,70.51
2022-08-26T08:36:53.674Z,70.39
2022-08-26T08:39:22.432Z,70.45
2022-08-26T08:42:16.096Z,70.34
2022-08-26T08:44:51.952Z,70.32
2022-08-26T08:47:35.928Z,70.23
2022-08-26T08:50:26.115Z,69.91
2022-08-26T08:53:18.148Z,70.14
2022-08-26T08:56:17.310Z,70.07
2022-08-26T08:59:07.692Z,70.04
2022-08-26T09:01:55.805Z,70.10
2022-08-26T09:04:40.993Z,70.45
2022-08-26T09:07:13.697Z,70.46
2022-08-26T09:09:55.748Z,70.52
2022-08-26T09:12:30.096Z,70.72
2022-08-26T09:15:20.612Z,70.77
2022-08-26T09:18:11.023Z,70.75
2022-08-26T09:20:54.283Z,70.67
2022-08-26T09:23:21.592Z,70.62
2022-08-26T09:28:29.458Z,70.71
2022-08-26T09:31:23.862Z,70.59
2022-08-26T09:34:10.504Z,70.73
2022-08-26T09:36:42.096Z,70.66
2022-08-26T09:39:24.340Z,70.46
2022-08-26T09:42:25.449Z,70.58
2022-08-26T09:45:10.574Z,70.63
2022-08-26T09:47:40.732Z,70.73
2022-08-26T09:50:28.966Z,70.52
2022-08-26T09:53:09.965Z,70.54
2022-08-26T09:55:46.028Z,70.59
2022-08-26T09:58:15.140Z,70.44
2022-08-26T10:00:56.757Z,70.35
2022-08-26T10:03:31.378Z,70.35
2022-08-26T10:06:21.671Z,70.35
2022-08-26T10:09:08.361Z,70.28
2022-08-26T10:11:51.765Z,70.23
2022-08-26T10:14:39.867Z,70.21
2022-08-26T10:17:26.706Z,70.22
2022-08-26T10:20:22.716Z,70.28
2022-08-26T10:23:01.721Z,70.30
2022-08-26T10:25:37.391Z,70.19
2022-08-26T10:28:35.653Z,70.02
2022-08-26T10:31:27.889Z,70.23
2022-08-26T10:33:58.800Z,70.18
2022-08-26T10:37:13.522Z,70.19
2022-08-26T10:39:43.909Z,70.13
2022-08-26T10:42:38.131Z,70.23
2022-08-26T10:45:15.182Z,70.34
2022-08-26T10:47:50.527Z,70.52
2022-08-26T10:50:18.909Z,70.52
2022-08-26T10:53:08.762Z,70.58
2022-08-26T10:56:00.272Z,70.66
2022-08-26T10:58:38.644Z,70.77
2022-08-26T11:01:40.840Z,70.66
2022-08-26T11:04:16.923Z,70.73
2022-08-26T11:06:46.938Z,70.77
2022-08-26T11:09:45.005Z,70.77
2022-08-26T11:12:37.362Z,70.70
2022-08-26T11:15:13.611Z,70.71
2022-08-26T11:17:46.522Z,70.73
2022-08-26T11:20:32.312Z,70.71
2022-08-26T11:23:27.238Z,70.74
2022-08-26T11:25:59.736Z,70.83
2022-08-26T11:28:45.086Z,71.06
2022-08-26T11:31:37.906Z,71.11
2022-08-26T11:34:08.791Z,71.21
2022-08-26T11:36:46.790Z,71.28
2022-08-26T11:39:28.951Z,71.38
2022-08-26T11:42:15.701Z,71.45
2022-08-26T11:44:49.390Z,71.68
2022-08-26T11:47:24.996Z,71.71
2022-08-26T11:50:17.706Z,71.74
2022-08-26T11:52:59.185Z,71.84
2022-08-26T11:55:26.193Z,72.28
2022-08-26T11:58:00.120Z,72.11
2022-08-26T12:00:31.433Z,72.24
2022-08-26T12:03:05.721Z,72.34
2022-08-26T12:05:43.430Z,72.23
2022-08-26T12:08:24.833Z,72.51
2022-08-26T12:11:09.840Z,72.33
2022-08-26T12:13:39.243Z,72.28
2022-08-26T12:16:07.623Z,72.45
2022-08-26T12:18:37.834Z,71.83
2022-08-26T12:21:26.680Z,72.11
2022-08-26T12:23:56.980Z,72.29
2022-08-26T12:26:42.013Z,72.33
2022-08-26T12:29:26.828Z,72.41
2022-08-26T12:32:17.499Z,72.41
2022-08-26T12:34:47.335Z,72.46
2022-08-26T12:37:15.539Z,72.68
2022-08-26T12:39:44.950Z,72.56
2022-08-26T12:42:17.345Z,72.48
2022-08-26T12:45:03.790Z,72.67
2022-08-26T12:47:43.501Z,72.87
2022-08-26T12:50:32.502Z,72.82
2022-08-26T12:53:11.377Z,72.74
2022-08-26T12:55:51.672Z,72.64
2022-08-26T12:58:18.555Z,72.80
2022-08-26T13:00:54.218Z,72.99
2022-08-26T13:03:45.376Z,72.87
2022-08-26T13:06:15.597Z,72.87
2022-08-26T13:09:00.299Z,72.89
2022-08-26T13:11:29.063Z,72.81
2022-08-26T13:14:07.593Z,72.85
2022-08-26T13:16:36.176Z,72.69
2022-08-26T13:19:10.055Z,72.92
2022-08-26T13:21:58.082Z,72.38
2022-08-26T13:24:24.998Z,73.28
2022-08-26T13:26:52.049Z,73.58
2022-08-26T13:29:19.563Z,73.25
2022-08-26T13:31:48.056Z,73.29
2022-08-26T13:34:19.179Z,73.28
2022-08-26T13:36:47.534Z,73.23
2022-08-26T13:39:14.407Z,73.28
2022-08-26T13:41:42.341Z,73.38
2022-08-26T13:44:10.429Z,73.45
2022-08-26T13:46:37.423Z,73.46
2022-08-26T13:49:04.419Z,73.51
2022-08-26T13:51:31.745Z,73.41
2022-08-26T13:53:59.124Z,73.60
2022-08-26T13:56:29.619Z,73.68
2022-08-26T13:58:58.074Z,73.72
2022-08-26T14:01:26.140Z,73.93
2022-08-26T14:03:53.222Z,73.96
2022-08-26T14:06:20.842Z,74.38
2022-08-26T14:08:48.608Z,74.52
2022-08-26T14:11:15.653Z,73.96
2022-08-26T14:13:42.762Z,74.35
2022-08-26T14:16:16.075Z,74.43
2022-08-26T14:18:47.344Z,74.24
2022-08-26T14:21:17.116Z,74.42
2022-08-26T14:23:44.033Z,74.51
2022-08-26T14:26:11.969Z,74.25
2022-08-26T14:28:59.754Z,74.51
2022-08-26T14:31:29.403Z,74.77
2022-08-26T14:34:03.831Z,74.57
2022-08-26T14:36:32.517Z,74.21
2022-08-26T14:39:07.225Z,74.17
2022-08-26T14:41:38.232Z,74.06
2022-08-26T14:44:10.326Z,74.44
2022-08-26T14:46:46.085Z,74.51
2022-08-26T14:49:13.768Z,74.60
2022-08-26T14:51:41.273Z,74.55
2022-08-26T14:54:11.913Z,74.44
2022-08-26T14:56:48.604Z,74.67
2022-08-26T14:59:18.126Z,74.64
2022-08-26T15:01:45.726Z,74.66
2022-08-26T15:04:13.252Z,74.56
2022-08-26T15:06:40.554Z,74.44
2022-08-26T15:09:08.236Z,74.58
2022-08-26T15:11:35.169Z,74.45
2022-08-26T15:14:02.699Z,74.31
2022-08-26T15:16:30.560Z,74.35
2022-08-26T15:18:58.045Z,74.22
2022-08-26T15:21:26.231Z,74.52
2022-08-26T15:23:54.164Z,74.56
2022-08-26T15:26:22.361Z,74.41
2022-08-26T15:28:49.812Z,74.43
2022-08-26T15:31:17.175Z,75.46
2022-08-26T15:33:44.252Z,75.05
2022-08-26T15:36:12.038Z,74.36
2022-08-26T15:38:42.420Z,74.29
2022-08-26T15:41:10.351Z,74.44
2022-08-26T15:43:38.377Z,74.23
2022-08-26T15:46:10.417Z,74.23
2022-08-26T15:48:38.412Z,74.34
2022-08-26T15:51:07.157Z,74.24
2022-08-26T15:53:35.673Z,74.31
2022-08-26T15:56:02.829Z,74.34
2022-08-26T15:58:30.250Z,74.44
2022-08-26T16:00:57.504Z,74.89
2022-08-26T16:03:25.917Z,74.73
2022-08-26T16:05:53.561Z,74.68
2022-08-26T16:08:20.936Z,74.57
2022-08-26T16:10:50.529Z,74.73
2022-08-26T16:13:19.961Z,74.96
2022-08-26T16:15:49.870Z,74.99
2022-08-26T16:18:17.199Z,75.09
2022-08-26T16:21:12.391Z,75.21
2022-08-26T16:23:37.472Z,75.49
2022-08-26T16:26:12.163Z,75.49
2022-08-26T16:28:39.745Z,75.79
2022-08-26T16:31:08.333Z,75.89
2022-08-26T16:33:35.347Z,75.93
2022-08-26T16:36:02.408Z,76.12
2022-08-26T16:38:29.485Z,76.28
2022-08-26T16:40:56.666Z,76.43
2022-08-26T16:43:24.147Z,76.47
2022-08-26T16:45:51.183Z,76.39
2022-08-26T16:48:18.224Z,76.40
2022-08-26T16:50:45.307Z,76.54
2022-08-26T16:55:45.934Z,76.62
2022-08-26T16:58:12.944Z,76.84
2022-08-26T17:00:39.993Z,77.03
2022-08-26T17:03:07.054Z,77.66
2022-08-26T17:05:34.298Z,77.61
2022-08-26T17:08:01.163Z,78.08
2022-08-26T17:10:29.567Z,78.26
2022-08-26T17:12:56.805Z,78.56
2022-08-26T17:15:23.933Z,78.92
2022-08-26T17:17:54.765Z,79.24
2022-08-26T17:20:23.847Z,79.29
2022-08-26T17:22:52.569Z,79.62
2022-08-26T17:25:29.343Z,79.80
2022-08-26T17:30:29.742Z,79.91
2022-08-26T17:32:58.096Z,79.54
2022-08-26T17:35:26.584Z,80.18
2022-08-26T17:37:56.166Z,80.33
2022-08-26T17:40:25.523Z,80.30
2022-08-26T17:42:52.593Z,80.43
2022-08-26T17:47:53.772Z,80.30
2022-08-26T17:50:21.297Z,80.42
2022-08-26T17:52:48.337Z,80.29
2022-08-26T17:55:18.102Z,80.47
2022-08-26T17:57:53.420Z,80.37
2022-08-26T18:00:23.525Z,80.34
2022-08-26T18:02:50.462Z,80.49
2022-08-26T18:05:18.089Z,80.26
2022-08-26T18:07:45.216Z,80.30
2022-08-26T18:10:15.463Z,79.98
2022-08-26T18:12:42.744Z,79.98
2022-08-26T18:15:11.502Z,80.06
2022-08-26T18:17:39.910Z,79.93
2022-08-26T18:20:09.601Z,80.01
2022-08-26T18:22:36.780Z,79.67
2022-08-26T18:25:05.398Z,79.67
2022-08-26T18:27:32.573Z,79.62
2022-08-26T18:30:00.065Z,79.68
2022-08-26T18:32:27.199Z,79.64
2022-08-26T18:34:54.136Z,79.36
2022-08-26T18:37:21.114Z,79.07
2022-08-26T18:39:48.695Z,79.11
2022-08-26T18:42:15.658Z,79.14
2022-08-26T18:44:42.530Z,79.11
2022-08-26T18:47:09.610Z,79.40
2022-08-26T18:49:36.588Z,79.52
2022-08-26T18:52:04.340Z,79.67
2022-08-26T18:54:31.361Z,79.66
2022-08-26T18:56:58.718Z,79.85
2022-08-26T18:59:29.684Z,79.65
2022-08-26T19:01:57.917Z,79.75
2022-08-26T19:04:25.196Z,79.93
2022-08-26T19:06:53.123Z,79.97
2022-08-26T19:09:20.948Z,80.01
2022-08-26T19:11:49.659Z,80.11
2022-08-26T19:14:17.740Z,80.13
2022-08-26T19:16:48.376Z,80.30
2022-08-26T19:19:15.829Z,80.10
2022-08-26T19:21:43.091Z,80.17
2022-08-26T19:24:15.601Z,80.23
2022-08-26T19:26:57.973Z,80.14
2022-08-26T19:29:28.879Z,80.30
2022-08-26T19:31:56.605Z,80.20
2022-08-26T19:34:24.155Z,80.12
2022-08-26T19:36:53.239Z,79.98
2022-08-26T19:39:21.292Z,80.11
2022-08-26T19:41:48.816Z,80.08
2022-08-26T19:44:37.345Z,80.11
2022-08-26T19:47:05.885Z,80.19
2022-08-26T19:49:33.567Z,80.13
2022-08-26T19:52:02.414Z,80.23
2022-08-26T19:54:29.332Z,80.02
2022-08-26T19:56:56.393Z,80.10
2022-08-26T19:59:23.220Z,80.19
2022-08-26T20:02:00.481Z,80.31
2022-08-26T20:04:30.250Z,80.27
2022-08-26T20:07:00.231Z,80.48
2022-08-26T20:09:32.703Z,80.49
2022-08-26T20:12:00.363Z,80.45
2022-08-26T20:14:28.371Z,80.42
2022-08-26T20:16:55.834Z,80.33
2022-08-26T20:19:41.504Z,80.33
2022-08-26T20:22:08.784Z,80.30
2022-08-26T20:24:35.996Z,80.49
2022-08-26T20:27:07.673Z,80.61
2022-08-26T20:29:35.880Z,80.64
2022-08-26T20:32:03.357Z,80.49
2022-08-26T20:34:32.386Z,80.32
2022-08-26T20:36:59.663Z,80.43
2022-08-26T20:39:29.597Z,80.54
2022-08-26T20:41:58.011Z,80.59
2022-08-26T20:44:25.688Z,80.57
2022-08-26T20:46:53.229Z,80.62
2022-08-26T20:49:20.193Z,80.67
2022-08-26T20:51:51.480Z,80.63
2022-08-26T20:54:27.509Z,80.55
2022-08-26T20:56:56.965Z,80.63
2022-08-26T20:59:24.468Z,80.65
2022-08-26T21:01:51.354Z,80.72
2022-08-26T21:04:21.147Z,80.78
2022-08-26T21:06:52.323Z,80.92
2022-08-26T21:09:22.953Z,80.84
2022-08-26T21:11:50.474Z,81.05
2022-08-26T21:14:18.786Z,80.97
2022-08-26T21:16:46.733Z,80.99
2022-08-26T21:19:15.584Z,80.65
2022-08-26T21:21:42.610Z,80.62
2022-08-26T21:24:09.561Z,80.75
2022-08-26T21:26:37.161Z,80.75
2022-08-26T21:29:04.339Z,80.75
2022-08-26T21:31:32.232Z,80.82
2022-08-26T21:33:59.810Z,80.56
2022-08-26T21:36:27.103Z,80.51
2022-08-26T21:38:57.184Z,80.43
2022-08-26T21:41:24.495Z,80.44
2022-08-26T21:43:53.676Z,80.55
2022-08-26T21:46:22.708Z,80.56
2022-08-26T21:48:52.211Z,80.52
2022-08-26T21:51:21.368Z,80.52
2022-08-26T21:53:48.569Z,80.57
2022-08-26T21:56:18.080Z,80.55
2022-08-26T21:58:46.306Z,80.54
2022-08-26T22:01:15.867Z,80.35
2022-08-26T22:03:47.316Z,80.21
2022-08-26T22:06:19.628Z,79.98
2022-08-26T22:08:46.892Z,80.14
2022-08-26T22:11:14.400Z,79.83
2022-08-26T22:13:42.897Z,79.79
2022-08-26T22:16:11.346Z,79.71
2022-08-26T22:18:39.034Z,79.72
2022-08-26T22:21:08.757Z,79.62
2022-08-26T22:23:37.533Z,79.76
2022-08-26T22:26:06.747Z,79.69
2022-08-26T22:28:33.988Z,79.64
2022-08-26T22:31:02.006Z,79.47
2022-08-26T22:33:29.477Z,79.30
2022-08-26T22:35:56.405Z,79.37
2022-08-26T22:38:24.016Z,79.41
2022-08-26T22:40:56.571Z,79.25
2022-08-26T22:43:28.770Z,79.17
2022-08-26T22:45:56.685Z,79.20
2022-08-26T22:48:26.510Z,78.97
2022-08-26T22:51:00.023Z,79.11
2022-08-26T22:53:27.430Z,79.53
2022-08-26T22:55:54.484Z,79.40
2022-08-26T22:58:30.223Z,79.37
2022-08-26T23:00:59.338Z,79.15
2022-08-26T23:03:27.680Z,79.04
2022-08-26T23:05:55.627Z,79.11
2022-08-26T23:08:23.647Z,79.12
2022-08-26T23:10:51.838Z,79.30
2022-08-26T23:13:20.114Z,79.59
2022-08-26T23:15:47.134Z,79.57
2022-08-26T23:18:15.351Z,79.56
2022-08-26T23:20:42.912Z,79.44
2022-08-26T23:23:09.836Z,79.37
2022-08-26T23:25:36.984Z,79.31
2022-08-26T23:28:05.362Z,79.30
2022-08-26T23:30:33.115Z,79.39
2022-08-26T23:33:00.460Z,79.33
2022-08-26T23:35:28.721Z,79.22
2022-08-26T23:37:57.819Z,79.30
2022-08-26T23:40:28.237Z,79.20
2022-08-26T23:42:57.160Z,79.37
2022-08-26T23:45:25.621Z,79.40
2022-08-26T23:47:54.035Z,79.38
2022-08-26T23:50:23.446Z,79.29
2022-08-26T23:53:09.085Z,79.25
2022-08-26T23:55:37.413Z,79.19
2022-08-26T23:58:05.426Z,79.25
